Time;durP1;ratioP1;P1;durP2;ratioP2;P2;SDS_P1;SDS_P2;PMS_P1;PMS_P2;Temp;Humidity;BMP_temperature;BMP_pressure;BME280_temperature;BME280_humidity;BME280_pressure;Samples;Min_cycle;Max_cycle;Signal;HPM_P1;HPM_P2
2021/07/06 00:01:33;;;;;;;;;;;;;;;20.60;54.09;99902.63;5057749;28;784;-45
2021/07/06 00:03:58;;;;;;;;;;;;;;;20.58;53.72;99904.88;5057977;28;1921;-44
2021/07/06 00:06:24;;;;;;;;;;;;;;;20.63;54.30;99910.25;5058051;28;744;-44
2021/07/06 00:08:49;;;;;;;;;;;;;;;20.65;54.93;99896.94;5057702;28;744;-46
2021/07/06 00:11:21;;;;;;;;;;;;;;;20.65;55.14;99894.16;5058133;28;716;-45
2021/07/06 00:13:49;;;;;;;;;;;;;;;20.77;55.07;99880.56;5057872;28;1025;-43
2021/07/06 00:16:15;;;;;;;;;;;;;;;20.74;55.51;99886.75;5057307;28;736;-46
2021/07/06 00:18:41;;;;;;;;;;;;;;;20.76;55.95;99884.50;5057906;28;752;-44
2021/07/06 00:21:06;;;;;;;;;;;;;;;20.76;55.90;99876.19;5057913;28;858;-45
2021/07/06 00:23:32;;;;;;;;;;;;;;;20.89;55.70;99877.19;5057127;28;1969;-46
2021/07/06 00:25:57;;;;;;;;;;;;;;;20.75;56.24;99882.03;5057679;28;867;-45
2021/07/06 00:28:23;;;;;;;;;;;;;;;21.09;55.03;99881.22;5058033;28;736;-45
2021/07/06 00:30:49;;;;;;;;;;;;;;;20.91;55.69;99890.66;5056766;28;987;-44
2021/07/06 00:33:15;;;;;;;;;;;;;;;21.00;55.46;99886.75;5057607;28;760;-46
2021/07/06 00:35:42;;;;;;;;;;;;;;;20.97;55.49;99881.06;5057417;28;751;-45
2021/07/06 00:38:10;;;;;;;;;;;;;;;21.04;55.42;99889.69;5057056;28;794;-45
2021/07/06 00:40:36;;;;;;;;;;;;;;;20.97;55.32;99884.66;5057584;28;767;-45
2021/07/06 00:43:01;;;;;;;;;;;;;;;20.93;55.38;99889.22;5057801;28;1981;-46
2021/07/06 00:45:27;;;;;;;;;;;;;;;21.00;55.37;99889.53;5056587;28;971;-44
2021/07/06 00:47:53;;;;;;;;;;;;;;;20.95;55.43;99895.22;5057428;28;752;-44
2021/07/06 00:50:19;;;;;;;;;;;;;;;21.00;55.18;99888.72;5057333;28;798;-45
2021/07/06 00:52:44;;;;;;;;;;;;;;;21.06;55.09;99887.41;5056686;28;1041;-44
2021/07/06 00:55:10;;;;;;;;;;;;;;;21.03;55.20;99888.06;5057028;28;885;-45
2021/07/06 00:57:37;;;;;;;;;;;;;;;20.94;55.24;99887.25;5038503;28;959;-47
2021/07/06 01:00:04;;;;;;;;;;;;;;;21.03;54.83;99885.31;5038460;28;956;-44
2021/07/06 01:02:30;;;;;;;;;;;;;;;21.10;54.72;99899.44;5057323;28;1913;-44
2021/07/06 01:04:55;;;;;;;;;;;;;;;21.15;54.53;99899.28;5056842;28;724;-44
2021/07/06 01:07:21;;;;;;;;;;;;;;;21.37;53.79;99903.00;5056422;28;764;-44
2021/07/06 01:09:46;;;;;;;;;;;;;;;21.12;54.64;99913.75;5039044;28;824;-44
2021/07/06 01:12:12;;;;;;;;;;;;;;;21.18;54.32;99912.47;5057143;28;471;-44
2021/07/06 01:14:37;;;;;;;;;;;;;;;21.18;54.42;99906.94;5056061;28;1010;-44
2021/07/06 01:17:05;;;;;;;;;;;;;;;21.01;54.83;99912.44;5056682;28;791;-44
2021/07/06 01:19:31;;;;;;;;;;;;;;;21.23;54.27;99907.91;5038774;28;891;-45
2021/07/06 01:22:07;;;;;;;;;;;;;;;20.98;55.01;99913.09;5056295;28;855;-44
2021/07/06 01:24:36;;;;;;;;;;;;;;;21.01;54.90;99915.19;5056646;28;1957;-44
2021/07/06 01:27:04;;;;;;;;;;;;;;;21.17;54.68;99905.28;5056303;28;929;-44
2021/07/06 01:29:30;;;;;;;;;;;;;;;21.18;54.37;99903.34;5055798;28;970;-44
2021/07/06 01:31:55;;;;;;;;;;;;;;;20.90;55.29;99906.44;5056517;28;894;-43
2021/07/06 01:34:20;;;;;;;;;;;;;;;21.04;54.86;99900.72;5056219;28;824;-44
2021/07/06 01:36:46;;;;;;;;;;;;;;;20.96;55.09;99902.38;5056056;28;836;-44
2021/07/06 01:39:12;;;;;;;;;;;;;;;21.09;54.92;99908.88;5056021;28;799;-44
2021/07/06 01:41:38;;;;;;;;;;;;;;;21.03;55.40;99908.22;5056244;28;756;-44
2021/07/06 01:44:17;;;;;;;;;;;;;;;21.00;55.57;99908.06;5055770;28;1918;-44
2021/07/06 01:46:42;;;;;;;;;;;;;;;21.09;55.51;99908.88;5056132;28;799;-45
2021/07/06 01:49:13;;;;;;;;;;;;;;;21.05;55.74;99907.88;5056724;28;1871;-44
2021/07/06 01:51:39;;;;;;;;;;;;;;;;;;5056266;28;783;-44
2021/07/06 01:54:04;;;;;;;;;;;;;;;21.35;54.78;99906.09;5056302;28;1040;-44
2021/07/06 01:56:29;;;;;;;;;;;;;;;21.11;55.78;99898.31;5056232;28;799;-44
2021/07/06 01:58:55;;;;;;;;;;;;;;;21.26;55.17;99908.03;5055872;28;982;-44
2021/07/06 02:01:21;;;;;;;;;;;;;;;21.27;55.32;99898.63;5056437;28;776;-45
2021/07/06 02:03:50;;;;;;;;;;;;;;;21.12;55.76;99901.88;5056223;28;1918;-45
2021/07/06 02:06:15;;;;;;;;;;;;;;;21.34;55.06;99903.66;5056029;28;835;-45
2021/07/06 02:08:41;;;;;;;;;;;;;;;21.19;55.70;99904.97;5056136;28;807;-45
2021/07/06 02:11:06;;;;;;;;;;;;;;;21.31;55.37;99910.66;5056450;28;831;-45
2021/07/06 02:13:31;;;;;;;;;;;;;;;21.26;55.42;99912.78;5055943;28;784;-45
2021/07/06 02:15:58;;;;;;;;;;;;;;;21.51;54.76;99914.69;5055719;28;1022;-45
2021/07/06 02:18:27;;;;;;;;;;;;;;;20.96;56.64;99909.84;5056709;28;750;-45
2021/07/06 02:20:53;;;;;;;;;;;;;;;20.90;56.87;99905.63;5055972;28;803;-46
2021/07/06 02:23:19;;;;;;;;;;;;;;;20.43;56.68;99903.41;5056115;28;1938;-47
2021/07/06 02:25:45;;;;;;;;;;;;;;;20.77;57.43;99912.91;5056303;28;750;-45
2021/07/06 02:28:10;;;;;;;;;;;;;;;21.30;56.98;99908.22;5056012;28;771;-45
2021/07/06 02:30:36;;;;;;;;;;;;;;;21.39;57.74;99905.44;5055758;28;1013;-44
2021/07/06 02:33:02;;;;;;;;;;;;;;;21.52;58.06;99910.81;5056183;28;866;-45
2021/07/06 02:35:27;;;;;;;;;;;;;;;21.62;58.35;99906.88;5055630;28;740;-44
2021/07/06 02:37:56;;;;;;;;;;;;;;;21.00;61.03;99900.59;5056209;28;788;-44
2021/07/06 02:40:21;;;;;;;;;;;;;;;21.08;60.52;99909.19;5056115;28;751;-45
2021/07/06 02:42:47;;;;;;;;;;;;;;;20.55;59.46;99900.00;5055979;28;1918;-44
2021/07/06 02:45:13;;;;;;;;;;;;;;;21.15;61.20;99901.22;5055359;28;962;-45
2021/07/06 02:47:38;;;;;;;;;;;;;;;21.51;60.99;99891.75;5055877;28;768;-45
2021/07/06 02:50:04;;;;;;;;;;;;;;;21.86;59.65;99900.00;5055814;28;819;-47
2021/07/06 02:52:29;;;;;;;;;;;;;;;22.13;59.17;99895.16;5059408;28;1210;-45
2021/07/06 02:54:55;;;;;;;;;;;;;;;21.80;59.83;99893.03;5059786;28;747;-46
2021/07/06 02:57:36;;;;;;;;;;;;;;;21.26;62.01;99898.94;5059336;28;878;-45
2021/07/06 03:00:04;;;;;;;;;;;;;;;21.06;61.32;99903.19;5059450;28;979;-44
2021/07/06 03:02:29;;;;;;;;;;;;;;;20.44;60.62;99903.09;5059481;28;1906;-44
2021/07/06 03:04:55;;;;;;;;;;;;;;;21.24;61.73;99909.50;5059145;28;787;-44
2021/07/06 03:07:20;;;;;;;;;;;;;;;21.64;61.85;99912.09;5059633;28;803;-44
2021/07/06 03:09:46;;;;;;;;;;;;;;;21.92;60.51;99917.22;5059400;28;732;-44
2021/07/06 03:12:11;;;;;;;;;;;;;;;22.12;59.73;99916.50;5059193;28;752;-43
2021/07/06 03:14:37;;;;;;;;;;;;;;;21.78;60.58;99918.22;5058648;28;888;-50
2021/07/06 03:17:02;;;;;;;;;;;;;;;21.99;59.97;99914.75;5059168;28;879;-43
2021/07/06 03:19:27;;;;;;;;;;;;;;;21.42;62.02;99915.84;5059197;28;748;-42
2021/07/06 03:21:53;;;;;;;;;;;;;;;21.31;62.04;99926.44;5059318;28;744;-42
2021/07/06 03:24:18;;;;;;;;;;;;;;;21.02;59.36;99925.13;5058896;28;1976;-42
2021/07/06 03:26:44;;;;;;;;;;;;;;;21.12;59.68;99935.84;5059017;28;784;-42
2021/07/06 03:29:09;;;;;;;;;;;;;;;21.31;61.46;99931.97;5058775;28;1022;-43
2021/07/06 03:31:34;;;;;;;;;;;;;;;21.53;61.99;99926.28;5058881;28;748;-44
2021/07/06 03:34:00;;;;;;;;;;;;;;;21.85;60.74;99917.72;5059010;28;778;-43
2021/07/06 03:36:25;;;;;;;;;;;;;;;22.00;60.05;99931.03;5059000;28;808;-43
2021/07/06 03:38:51;;;;;;;;;;;;;;;21.55;61.36;99927.91;5058640;28;824;-43
2021/07/06 03:41:16;;;;;;;;;;;;;;;21.22;62.43;99933.91;5058946;28;799;-43
2021/07/06 03:43:41;;;;;;;;;;;;;;;20.96;60.65;99931.97;5058424;28;1973;-45
2021/07/06 03:46:07;;;;;;;;;;;;;;;20.85;60.63;99920.41;5058168;28;955;-43
2021/07/06 03:48:32;;;;;;;;;;;;;;;21.22;62.40;99920.88;5058553;28;752;-42
2021/07/06 03:50:58;;;;;;;;;;;;;;;21.67;61.80;99915.03;5058398;28;803;-43
2021/07/06 03:53:23;;;;;;;;;;;;;;;21.78;60.97;99915.47;5057987;28;1028;-43
2021/07/06 03:55:49;;;;;;;;;;;;;;;22.03;59.99;99922.09;5058749;28;732;-42
2021/07/06 03:58:14;;;;;;;;;;;;;;;21.68;60.86;99926.88;5057588;28;1423;-44
2021/07/06 04:00:39;;;;;;;;;;;;;;;21.36;62.13;99937.31;5057885;28;948;-43
2021/07/06 04:03:05;;;;;;;;;;;;;;;21.12;61.33;99938.63;5057893;28;1910;-43
2021/07/06 04:05:30;;;;;;;;;;;;;;;20.75;59.76;99943.63;5058280;28;775;-43
2021/07/06 04:07:56;;;;;;;;;;;;;;;21.34;61.54;99947.91;5058629;28;747;-43
2021/07/06 04:10:21;;;;;;;;;;;;;;;21.69;61.73;99951.47;5058332;28;808;-42
2021/07/06 04:12:47;;;;;;;;;;;;;;;21.98;60.44;99957.41;5057949;28;843;-42
2021/07/06 04:15:13;;;;;;;;;;;;;;;22.25;59.53;99958.16;5057548;28;1062;-44
2021/07/06 04:17:38;;;;;;;;;;;;;;;21.79;61.05;99955.03;5058304;28;794;-42
2021/07/06 04:20:04;;;;;;;;;;;;;;;21.33;62.79;99951.81;5057524;28;748;-42
2021/07/06 04:22:30;;;;;;;;;;;;;;;21.24;61.95;99948.22;5058215;28;1910;-41
2021/07/06 04:24:55;;;;;;;;;;;;;;;20.56;60.67;99952.16;5058099;28;866;-42
2021/07/06 04:27:21;;;;;;;;;;;;;;;20.63;61.60;99955.25;5057528;28;783;-40
2021/07/06 04:29:47;;;;;;;;;;;;;;;21.06;62.06;99953.75;5057636;28;959;-42
2021/07/06 04:32:15;;;;;;;;;;;;;;;21.45;62.79;99949.19;5057946;28;827;-41
2021/07/06 04:34:41;;;;;;;;;;;;;;;21.72;62.40;99944.47;5057428;28;744;-44
2021/07/06 04:37:06;;;;;;;;;;;;;;;21.77;61.91;99944.31;5058178;28;783;-41
2021/07/06 04:39:32;;;;;;;;;;;;;;;21.77;61.77;99940.69;5057686;28;855;-42
2021/07/06 04:41:57;;;;;;;;;;;;;;;21.43;62.98;99951.47;5057611;28;831;-42
2021/07/06 04:44:22;;;;;;;;;;;;;;;21.39;62.42;99939.41;5057090;28;1979;-42
2021/07/06 04:46:48;;;;;;;;;;;;;;;20.78;60.65;99940.22;5057715;28;756;-42
2021/07/06 04:49:13;;;;;;;;;;;;;;;21.25;62.01;99950.69;5056961;28;771;-44
2021/07/06 04:51:39;;;;;;;;;;;;;;;21.66;63.04;99943.81;5057884;28;784;-41
2021/07/06 04:54:04;;;;;;;;;;;;;;;21.85;62.83;99935.16;5057405;28;1021;-41
2021/07/06 04:56:30;;;;;;;;;;;;;;;22.04;61.73;99931.19;5056930;28;815;-42
2021/07/06 04:58:55;;;;;;;;;;;;;;;21.85;62.03;99937.94;5057099;28;971;-42
2021/07/06 05:01:21;;;;;;;;;;;;;;;21.49;63.17;99946.56;5057206;28;871;-41
2021/07/06 05:03:48;;;;;;;;;;;;;;;21.28;61.84;99955.56;5056708;28;1913;-43
2021/07/06 05:06:14;;;;;;;;;;;;;;;20.92;59.54;99953.09;5057181;28;1497;-41
2021/07/06 05:08:39;;;;;;;;;;;;;;;21.43;61.71;99951.47;5039397;28;1442;-42
2021/07/06 05:11:05;;;;;;;;;;;;;;;21.40;63.84;99946.59;5056708;28;771;-42
2021/07/06 05:13:31;;;;;;;;;;;;;;;21.88;62.51;99953.03;5056311;28;795;-41
2021/07/06 05:15:56;;;;;;;;;;;;;;;22.15;61.37;99954.59;5056797;28;1003;-43
2021/07/06 05:18:22;;;;;;;;;;;;;;;21.90;61.79;99956.31;5056639;28;820;-41
2021/07/06 05:20:47;;;;;;;;;;;;;;;21.53;62.90;99967.78;5056892;28;847;-41
2021/07/06 05:23:12;;;;;;;;;;;;;;;21.24;62.68;99968.41;5056771;28;1985;-41
2021/07/06 05:25:38;;;;;;;;;;;;;;;21.06;59.45;99967.56;5056512;28;735;-41
2021/07/06 05:28:03;;;;;;;;;;;;;;;21.37;61.13;99969.38;5056959;28;756;-42
2021/07/06 05:30:29;;;;;;;;;;;;;;;21.65;60.83;99971.81;5056057;28;1025;-42
2021/07/06 05:32:54;;;;;;;;;;;;;;;21.71;62.21;99964.97;5056605;28;736;-42
2021/07/06 05:35:20;;;;;;;;;;;;;;;22.00;61.52;99968.97;5056804;28;787;-43
2021/07/06 05:37:45;;;;;;;;;;;;;;;21.84;62.08;99966.75;5056670;28;752;-42
2021/07/06 05:40:11;;;;;;;;;;;;;;;21.57;63.05;99967.91;5055493;28;1524;-42
2021/07/06 05:42:37;;;;;;;;;;;;;;;21.30;62.63;99971.81;5056761;28;1973;-42
2021/07/06 05:45:03;;;;;;;;;;;;;;;21.07;59.79;99983.03;5055734;28;1011;-43
2021/07/06 05:47:28;;;;;;;;;;;;;;;21.33;60.58;99993.28;5056262;28;748;-43
2021/07/06 05:49:54;;;;;;;;;;;;;;;21.76;62.35;99991.66;5056541;28;791;-41
2021/07/06 05:52:19;;;;;;;;;;;;;;;22.04;63.38;99992.09;5056509;28;1016;-44
2021/07/06 05:54:45;;;;;;;;;;;;;;;22.19;63.38;99997.09;5056508;28;760;-43
2021/07/06 05:57:10;;;;;;;;;;;;;;;22.30;62.52;100005.03;5056579;28;764;-43
2021/07/06 05:59:35;;;;;;;;;;;;;;;21.98;63.27;100004.47;5056065;28;975;-43
2021/07/06 06:02:01;;;;;;;;;;;;;;;21.75;63.72;100014.94;5056118;28;855;-43
2021/07/06 06:04:27;;;;;;;;;;;;;;;21.33;59.85;100007.09;5056540;28;1910;-44
2021/07/06 06:06:53;;;;;;;;;;;;;;;21.30;58.66;100008.56;5056217;28;740;-44
2021/07/06 06:09:18;;;;;;;;;;;;;;;21.05;59.34;99999.09;5056402;28;824;-45
2021/07/06 06:11:44;;;;;;;;;;;;;;;20.90;57.96;99994.03;5055976;28;874;-43
2021/07/06 06:14:09;;;;;;;;;;;;;;;20.59;55.96;99986.63;5056014;28;998;-44
2021/07/06 06:16:35;;;;;;;;;;;;;;;20.57;55.74;99991.66;5056376;28;851;-44
2021/07/06 06:19:00;;;;;;;;;;;;;;;20.65;55.79;99999.13;5056025;28;839;-43
2021/07/06 06:21:26;;;;;;;;;;;;;;;20.90;55.54;100002.31;5056001;28;736;-44
2021/07/06 06:23:52;;;;;;;;;;;;;;;20.92;55.79;99995.34;5056114;28;1975;-42
2021/07/06 06:26:17;;;;;;;;;;;;;;;20.98;55.91;100001.53;5059491;28;869;-45
2021/07/06 06:28:43;;;;;;;;;;;;;;;20.82;56.50;99998.44;5060131;28;748;-44
2021/07/06 06:31:08;;;;;;;;;;;;;;;20.91;56.41;100003.97;5059661;28;963;-43
2021/07/06 06:33:33;;;;;;;;;;;;;;;21.16;55.62;100003.19;5059825;28;772;-42
2021/07/06 06:35:59;;;;;;;;;;;;;;;21.13;55.81;100006.59;5060050;28;740;-43
2021/07/06 06:38:24;;;;;;;;;;;;;;;20.99;56.16;100006.75;5060183;28;747;-43
2021/07/06 06:40:50;;;;;;;;;;;;;;;21.01;56.32;100011.94;5059562;28;748;-42
2021/07/06 06:43:15;;;;;;;;;;;;;;;21.15;55.88;100011.81;5059707;28;1910;-43
2021/07/06 06:45:41;;;;;;;;;;;;;;;20.98;56.52;100018.13;5059814;28;1018;-43
2021/07/06 06:48:06;;;;;;;;;;;;;;;20.99;56.57;100009.50;5059733;28;764;-40
2021/07/06 06:50:32;;;;;;;;;;;;;;;21.03;56.45;100016.00;5060027;28;756;-42
2021/07/06 06:52:57;;;;;;;;;;;;;;;21.00;56.42;100013.91;5059625;28;1120;-44
2021/07/06 06:55:22;;;;;;;;;;;;;;;20.95;56.59;100021.53;5059317;28;847;-43
2021/07/06 06:57:48;;;;;;;;;;;;;;;21.11;56.09;100021.88;5059650;28;744;-45
2021/07/06 07:00:14;;;;;;;;;;;;;;;21.17;55.77;100024.16;5059218;28;982;-45
2021/07/06 07:02:39;;;;;;;;;;;;;;;21.14;55.64;100030.34;5059100;28;1910;-40
2021/07/06 07:05:05;;;;;;;;;;;;;;;21.02;56.25;100025.44;5059779;28;832;-41
2021/07/06 07:07:30;;;;;;;;;;;;;;;21.13;55.94;100030.69;5059591;28;760;-45
2021/07/06 07:09:56;;;;;;;;;;;;;;;21.09;56.10;100024.97;5059136;28;787;-43
2021/07/06 07:12:21;;;;;;;;;;;;;;;21.12;56.19;100034.56;5059262;28;807;-44
2021/07/06 07:14:47;;;;;;;;;;;;;;;21.31;55.51;100028.75;5058913;28;1006;-43
2021/07/06 07:17:12;;;;;;;;;;;;;;;20.99;56.34;100026.09;5059121;28;760;-42
2021/07/06 07:19:38;;;;;;;;;;;;;;;20.91;56.71;100020.53;5059279;28;744;-41
2021/07/06 07:22:04;;;;;;;;;;;;;;;20.99;56.66;100031.63;5059089;28;795;-42
2021/07/06 07:24:29;;;;;;;;;;;;;;;21.05;56.41;100026.75;5058758;28;1967;-41
2021/07/06 07:26:55;;;;;;;;;;;;;;;21.36;55.44;100025.81;5059779;28;791;-43
2021/07/06 07:29:20;;;;;;;;;;;;;;;21.27;56.11;100030.53;5058680;28;963;-40
2021/07/06 07:31:46;;;;;;;;;;;;;;;21.10;56.49;100034.91;5058862;28;823;-43
2021/07/06 07:34:11;;;;;;;;;;;;;;;20.95;57.04;100035.34;5059026;28;768;-43
2021/07/06 07:36:37;;;;;;;;;;;;;;;20.64;55.70;100041.72;5058288;28;752;-42
2021/07/06 07:39:02;;;;;;;;;;;;;;;20.75;58.07;100034.81;5058557;28;512;-42
2021/07/06 07:41:27;;;;;;;;;;;;;;;;;;5058906;28;759;-42
2021/07/06 07:43:54;;;;;;;;;;;;;;;21.55;58.48;100035.78;5058534;28;1965;-44
2021/07/06 07:46:22;;;;;;;;;;;;;;;21.57;59.51;100041.78;5058379;28;791;-42
2021/07/06 07:48:48;;;;;;;;;;;;;;;21.34;61.38;100036.41;5058850;28;748;-42
2021/07/06 07:51:13;;;;;;;;;;;;;;;21.23;62.22;100021.25;5059108;28;882;-42
2021/07/06 07:53:39;;;;;;;;;;;;;;;21.12;60.00;100042.88;5058072;28;1067;-42
2021/07/06 07:56:04;;;;;;;;;;;;;;;20.95;60.83;100040.88;5058677;28;828;-42
2021/07/06 07:58:30;;;;;;;;;;;;;;;21.57;62.88;100047.34;5058626;28;763;-45
2021/07/06 08:00:55;;;;;;;;;;;;;;;22.05;62.90;100044.38;5057805;28;959;-43
2021/07/06 08:03:21;;;;;;;;;;;;;;;22.36;61.70;100045.31;5058195;28;1913;-42
2021/07/06 08:05:46;;;;;;;;;;;;;;;22.09;62.46;100041.75;5058743;28;783;-42
2021/07/06 08:08:11;;;;;;;;;;;;;;;21.87;63.68;100042.78;5057592;28;1509;-45
2021/07/06 08:10:37;;;;;;;;;;;;;;;21.61;62.10;100062.94;5058365;28;799;-42
2021/07/06 08:13:02;;;;;;;;;;;;;;;21.14;58.85;100055.22;5058255;28;799;-43
2021/07/06 08:15:28;;;;;;;;;;;;;;;21.41;60.80;100063.56;5057687;28;1011;-45
2021/07/06 08:17:53;;;;;;;;;;;;;;;21.43;61.80;100056.56;5058218;28;784;-44
2021/07/06 08:20:19;;;;;;;;;;;;;;;21.41;60.79;100069.91;5058216;28;771;-44
2021/07/06 08:22:44;;;;;;;;;;;;;;;21.52;58.37;100049.13;5057530;28;1988;-43
2021/07/06 08:25:10;;;;;;;;;;;;;;;21.35;57.62;100054.63;5058173;28;859;-43
2021/07/06 08:27:36;;;;;;;;;;;;;;;20.95;57.85;100049.16;5057884;28;851;-45
2021/07/06 08:30:01;;;;;;;;;;;;;;;20.91;57.42;100042.66;5057351;28;983;-41
2021/07/06 08:32:27;;;;;;;;;;;;;;;21.00;56.84;100051.78;5058096;28;802;-43
2021/07/06 08:34:52;;;;;;;;;;;;;;;20.80;56.79;100042.13;5057855;28;825;-43
2021/07/06 08:37:17;;;;;;;;;;;;;;;21.16;55.40;100038.31;5057820;28;816;-42
2021/07/06 08:39:43;;;;;;;;;;;;;;;21.10;55.36;100039.63;5057615;28;863;-44
2021/07/06 08:42:09;;;;;;;;;;;;;;;20.87;55.62;100038.91;5057655;28;851;-39
2021/07/06 08:44:38;;;;;;;;;;;;;;;20.90;55.38;100039.09;5057482;28;1913;-43
2021/07/06 08:47:04;;;;;;;;;;;;;;;20.87;55.65;100028.66;5057462;28;759;-43
2021/07/06 08:49:29;;;;;;;;;;;;;;;21.01;55.22;100034.88;5039959;28;830;-43
2021/07/06 08:51:55;;;;;;;;;;;;;;;20.80;55.72;100056.78;5039516;28;884;-42
2021/07/06 08:54:20;;;;;;;;;;;;;;;20.96;54.72;100040.56;5056867;28;1175;-45
2021/07/06 08:56:46;;;;;;;;;;;;;;;21.08;54.52;100050.97;5057478;28;791;-45
2021/07/06 08:59:12;;;;;;;;;;;;;;;20.96;54.72;100045.28;5057115;28;978;-43
2021/07/06 09:01:37;;;;;;;;;;;;;;;20.91;54.65;100064.75;5056945;28;819;-45
2021/07/06 09:04:03;;;;;;;;;;;;;;;21.11;54.23;100058.66;5056970;28;1917;-43
2021/07/06 09:06:30;;;;;;;;;;;;;;;20.84;55.01;100057.72;5057415;28;755;-44
2021/07/06 09:09:14;;;;;;;;;;;;;;;20.92;55.05;100069.16;5056932;28;859;-44
2021/07/06 09:11:44;;;;;;;;;;;;;;;20.90;55.34;100063.97;5057116;28;863;-43
2021/07/06 09:14:10;;;;;;;;;;;;;;;20.99;55.05;100078.59;5056842;28;979;-44
2021/07/06 09:16:35;;;;;;;;;;;;;;;21.13;54.83;100070.19;5056772;28;811;-44
2021/07/06 09:19:01;;;;;;;;;;;;;;;21.23;54.57;100077.34;5057216;28;791;-42
2021/07/06 09:21:27;;;;;;;;;;;;;;;21.08;55.17;100072.28;5039477;28;883;-44
2021/07/06 09:23:55;;;;;;;;;;;;;;;21.33;54.55;100079.00;5038446;28;1914;-42
2021/07/06 09:26:22;;;;;;;;;;;;;;;21.13;55.13;100095.06;5057407;28;807;-45
2021/07/06 09:28:54;;;;;;;;;;;;;;;21.02;55.61;100094.53;5056743;28;944;-45
2021/07/06 09:31:20;;;;;;;;;;;;;;;20.95;55.81;100096.94;5038727;28;1053;-44
2021/07/06 09:33:49;;;;;;;;;;;;;;;20.98;55.59;100084.44;5056705;28;763;-43
2021/07/06 09:36:28;;;;;;;;;;;;;;;20.93;55.96;100099.25;5056947;28;839;-43
2021/07/06 09:38:59;;;;;;;;;;;;;;;21.10;55.32;100098.47;5055312;28;851;-43
2021/07/06 09:41:25;;;;;;;;;;;;;;;21.17;55.39;100096.06;5056253;28;1453;-44
2021/07/06 09:43:50;;;;;;;;;;;;;;;21.23;55.15;100098.69;5056008;28;1913;-46
2021/07/06 09:46:16;;;;;;;;;;;;;;;21.10;55.43;100101.25;5056151;28;653;-45
2021/07/06 09:48:44;;;;;;;;;;;;;;;21.09;55.45;100096.03;5056748;28;827;-44
2021/07/06 09:51:15;;;;;;;;;;;;;;;21.34;54.77;100102.75;5056659;28;697;-45
2021/07/06 09:53:41;;;;;;;;;;;;;;;21.04;55.63;100108.03;5056122;28;1164;-45
2021/07/06 09:56:12;;;;;;;;;;;;;;;21.28;54.87;100099.34;5056431;28;807;-43
2021/07/06 09:58:57;;;;;;;;;;;;;;;21.08;55.44;100108.22;5056510;28;799;-44
2021/07/06 10:01:23;;;;;;;;;;;;;;;21.04;55.56;100102.50;5036415;28;803;-43
2021/07/06 10:03:49;;;;;;;;;;;;;;;21.19;55.09;100101.25;5040342;28;1973;-43
2021/07/06 10:06:15;;;;;;;;;;;;;;;21.16;55.21;100107.44;5056053;28;827;-43
2021/07/06 10:08:41;;;;;;;;;;;;;;;21.14;55.19;100116.06;5056767;28;779;-41
2021/07/06 10:11:07;;;;;;;;;;;;;;;21.16;55.06;100119.28;5056528;28;819;-42
2021/07/06 10:13:33;;;;;;;;;;;;;;;21.45;55.66;100117.09;5056154;28;875;-45
2021/07/06 10:15:58;;;;;;;;;;;;;;;21.20;56.35;100125.81;5037921;28;964;-43
2021/07/06 10:18:23;;;;;;;;;;;;;;;21.07;57.59;100126.75;5038696;28;819;-41
2021/07/06 10:20:49;;;;;;;;;;;;;;;20.84;56.98;100126.00;5056471;28;835;-42
2021/07/06 10:23:15;;;;;;;;;;;;;;;20.64;58.53;100122.63;5055957;28;1977;-42
2021/07/06 10:25:42;;;;;;;;;;;;;;;21.17;58.83;100125.66;5037232;28;1447;-45
2021/07/06 10:28:14;;;;;;;;;;;;;;;21.62;59.03;100119.91;5036286;28;1498;-42
2021/07/06 10:30:40;;;;;;;;;;;;;;;21.65;60.39;100124.78;5052648;28;1289;-42
2021/07/06 10:33:06;;;;;;;;;;;;;;;21.41;62.58;100124.41;5055272;28;1330;-39
2021/07/06 10:35:40;;;;;;;;;;;;;;;21.48;61.93;100114.50;5037467;28;1323;-41
2021/07/06 10:38:24;;;;;;;;;;;;;;;21.40;59.20;100118.06;5056004;28;763;-43
2021/07/06 10:40:50;;;;;;;;;;;;;;;21.48;59.87;100116.44;5023820;28;1128;-42
2021/07/06 10:43:31;;;;;;;;;;;;;;;21.86;63.40;100118.63;5017749;28;1976;-42
2021/07/06 10:46:15;;;;;;;;;;;;;;;22.10;64.50;100126.44;5054031;28;959;-42
2021/07/06 10:48:42;;;;;;;;;;;;;;;22.12;65.17;100126.94;5055900;28;748;-41
2021/07/06 10:51:08;;;;;;;;;;;;;;;21.82;66.05;100123.97;5055879;28;819;-40
2021/07/06 10:53:33;;;;;;;;;;;;;;;21.87;65.83;100128.56;5055965;28;1068;-43
2021/07/06 10:56:02;;;;;;;;;;;;;;;21.44;62.06;100115.47;5056032;28;831;-42
2021/07/06 10:58:47;;;;;;;;;;;;;;;20.80;58.81;100117.56;5055719;28;688;-40
2021/07/06 11:01:31;;;;;;;;;;;;;;;20.67;61.46;100137.75;5036036;28;796;-44
2021/07/06 11:03:57;;;;;;;;;;;;;;;20.88;60.81;100145.53;5035864;28;1906;-46
2021/07/06 11:06:41;;;;;;;;;;;;;;;20.79;59.19;100143.56;5018175;28;1256;-39
2021/07/06 11:09:06;;;;;;;;;;;;;;;20.93;57.52;100137.09;5035949;28;792;-43
2021/07/06 11:11:35;;;;;;;;;;;;;;;21.10;57.29;100142.69;5036312;28;772;-42
2021/07/06 11:14:19;;;;;;;;;;;;;;;21.37;57.90;100144.41;5041056;28;964;-41
2021/07/06 11:16:57;;;;;;;;;;;;;;;21.71;58.84;100139.28;5058757;28;1411;-41
2021/07/06 11:19:33;;;;;;;;;;;;;;;21.53;60.23;100139.28;5059608;28;816;-40
2021/07/06 11:22:07;;;;;;;;;;;;;;;21.25;62.46;100144.22;5059243;28;780;-42
2021/07/06 11:24:40;;;;;;;;;;;;;;;21.17;62.20;100140.28;5058996;28;1910;-42
2021/07/06 11:27:05;;;;;;;;;;;;;;;20.77;61.13;100129.22;5059418;28;842;-42
2021/07/06 11:29:34;;;;;;;;;;;;;;;21.06;62.10;100138.94;5058421;28;955;-41
2021/07/06 11:32:13;;;;;;;;;;;;;;;21.66;63.40;100143.03;5059038;28;764;-41
2021/07/06 11:34:39;;;;;;;;;;;;;;;21.97;63.41;100141.28;5059130;28;807;-41
2021/07/06 11:37:05;;;;;;;;;;;;;;;22.12;62.99;100140.78;5058831;28;764;-42
2021/07/06 11:39:32;;;;;;;;;;;;;;;21.71;63.78;100139.28;5059022;28;814;-41
2021/07/06 11:41:58;;;;;;;;;;;;;;;21.55;64.76;100138.16;5059154;28;820;-42
2021/07/06 11:44:23;;;;;;;;;;;;;;;21.38;62.75;100136.94;5058200;28;1980;-44
2021/07/06 11:46:49;;;;;;;;;;;;;;;20.90;60.58;100135.81;5058164;28;1340;-41
2021/07/06 11:49:19;;;;;;;;;;;;;;;20.78;59.92;100141.91;5059029;28;851;-42
2021/07/06 11:51:45;;;;;;;;;;;;;;;21.22;61.14;100139.31;5058656;28;779;-42
2021/07/06 11:54:11;;;;;;;;;;;;;;;21.15;62.10;100138.97;5038541;28;1135;-45
2021/07/06 11:56:38;;;;;;;;;;;;;;;21.01;61.58;100128.84;5053377;28;759;-42
2021/07/06 11:59:10;;;;;;;;;;;;;;;21.28;59.23;100132.53;5057797;28;967;-42
2021/07/06 12:01:35;;;;;;;;;;;;;;;21.00;58.97;100137.47;5040612;28;809;-43
2021/07/06 12:04:01;;;;;;;;;;;;;;;20.96;57.91;100139.25;5058445;28;1914;-44
2021/07/06 12:06:28;;;;;;;;;;;;;;;21.08;57.33;100125.59;5058032;28;835;-41
2021/07/06 12:08:54;;;;;;;;;;;;;;;21.07;56.99;100125.94;5050393;28;1048;-43
2021/07/06 12:11:20;;;;;;;;;;;;;;;21.04;56.49;100132.91;5038859;28;736;-43
2021/07/06 12:13:47;;;;;;;;;;;;;;;21.03;56.02;100123.00;5038163;28;1015;-42
2021/07/06 12:16:23;;;;;;;;;;;;;;;21.01;56.24;100126.09;5058269;28;819;-42
2021/07/06 12:18:48;;;;;;;;;;;;;;;20.96;56.14;100119.91;5058497;28;763;-41
2021/07/06 12:21:19;;;;;;;;;;;;;;;20.85;55.97;100120.16;5058107;28;767;-42
2021/07/06 12:23:45;;;;;;;;;;;;;;;20.80;56.20;100117.56;5057973;28;1918;-42
2021/07/06 12:26:11;;;;;;;;;;;;;;;20.92;55.72;100113.38;5058291;28;767;-42
2021/07/06 12:28:39;;;;;;;;;;;;;;;20.97;55.51;100111.28;5057613;28;787;-44
2021/07/06 12:31:30;;;;;;;;;;;;;;;20.71;56.06;100102.88;5039899;28;996;-43
2021/07/06 12:34:06;;;;;;;;;;;;;;;20.77;55.84;100106.31;5053178;28;1177;-42
2021/07/06 12:36:35;;;;;;;;;;;;;;;20.80;55.72;100117.56;5057597;28;743;-44
2021/07/06 12:39:19;;;;;;;;;;;;;;;20.81;55.70;100110.06;5058152;28;752;-43
2021/07/06 12:41:47;;;;;;;;;;;;;;;20.87;55.89;100110.75;5055898;28;2075;-46
2021/07/06 12:44:12;;;;;;;;;;;;;;;21.02;55.01;100113.88;5057361;28;1984;-44
2021/07/06 12:46:38;;;;;;;;;;;;;;;21.11;55.03;100111.16;5051315;28;843;-44
2021/07/06 12:49:04;;;;;;;;;;;;;;;21.02;55.37;100096.50;5037459;28;783;-43
2021/07/06 12:51:29;;;;;;;;;;;;;;;21.07;55.19;100103.81;5037844;28;831;-42
2021/07/06 12:53:59;;;;;;;;;;;;;;;21.05;54.99;100095.84;5019893;28;1216;-44
2021/07/06 12:56:28;;;;;;;;;;;;;;;21.01;55.50;100119.72;5037554;28;901;-43
2021/07/06 12:58:54;;;;;;;;;;;;;;;21.06;55.04;100114.06;5038672;28;980;-42